createdAt,value
2022-09-04T00:01:30.873Z,100658.16
2022-09-04T00:04:49.357Z,100658.25
2022-09-04T00:08:15.990Z,100667.56
2022-09-04T00:11:26.925Z,100675.66
2022-09-04T00:14:43.814Z,100675.06
2022-09-04T00:18:08.359Z,100672.72
2022-09-04T00:21:37.068Z,100679.38
2022-09-04T00:24:43.132Z,100674.22
2022-09-04T00:27:50.315Z,100678.00
2022-09-04T00:31:19.779Z,100681.81
2022-09-04T00:34:46.479Z,100679.50
2022-09-04T00:37:56.598Z,100682.44
2022-09-04T00:41:20.503Z,100679.13
2022-09-04T00:44:45.982Z,100673.88
2022-09-04T00:48:05.836Z,100681.47
2022-09-04T00:51:26.208Z,100671.94
2022-09-04T00:55:20.430Z,100677.44
2022-09-04T00:58:35.388Z,100673.88
2022-09-04T01:01:38.933Z,100679.63
2022-09-04T01:04:55.834Z,100675.25
2022-09-04T01:08:23.604Z,100680.88
2022-09-04T01:11:52.375Z,100681.97
2022-09-04T01:15:03.862Z,100684.03
2022-09-04T01:18:17.437Z,100682.34
2022-09-04T01:21:34.215Z,100684.28
2022-09-04T01:24:48.141Z,100687.22
2022-09-04T01:28:13.601Z,100685.59
2022-09-04T01:31:31.973Z,100683.88
2022-09-04T01:35:01.754Z,100683.03
2022-09-04T01:38:16.647Z,100685.09
2022-09-04T01:41:40.953Z,100681.78
2022-09-04T01:44:42.879Z,100687.41
2022-09-04T01:47:58.157Z,100688.50
2022-09-04T01:51:25.412Z,100683.38
2022-09-04T01:55:11.361Z,100689.59
2022-09-04T01:59:03.924Z,100691.19
2022-09-04T02:02:38.890Z,100695.63
2022-09-04T02:05:53.287Z,100698.19
2022-09-04T02:09:35.085Z,100695.25
2022-09-04T02:12:54.081Z,100701.84
2022-09-04T05:28:20.357Z,100827.22
2022-09-04T05:31:58.962Z,100842.09
2022-09-04T05:35:22.114Z,100849.66
2022-09-04T05:38:46.793Z,100851.19
2022-09-04T05:41:54.913Z,100854.41
2022-09-04T05:45:05.787Z,100854.47
2022-09-04T05:48:19.616Z,100858.19
2022-09-04T05:51:38.702Z,100859.94
2022-09-04T05:55:13.315Z,100858.00
2022-09-04T05:58:46.380Z,100864.88
2022-09-04T06:02:56.818Z,100861.84
2022-09-04T06:06:46.116Z,100860.38
2022-09-04T06:10:33.928Z,100864.28
2022-09-04T06:13:54.020Z,100865.13
2022-09-04T06:17:15.310Z,100862.88
2022-09-04T06:20:29.287Z,100867.16
2022-09-04T06:23:34.170Z,100873.50
2022-09-04T06:26:51.191Z,100879.44
2022-09-04T06:29:58.968Z,100869.59
2022-09-04T06:33:13.388Z,100875.34
2022-09-04T06:36:49.159Z,100881.66
2022-09-04T06:40:46.422Z,100882.69
2022-09-04T06:44:06.409Z,100874.34
2022-09-04T06:47:30.218Z,100876.34
2022-09-04T06:50:32.136Z,100879.75
2022-09-04T06:53:46.514Z,100875.47
2022-09-04T06:57:06.408Z,100879.75
2022-09-04T07:00:09.411Z,100882.16
2022-09-04T07:03:28.739Z,100881.25
2022-09-04T07:06:54.577Z,100881.69
2022-09-04T07:14:25.116Z,100890.44
2022-09-04T07:17:38.207Z,100891.84
2022-09-04T07:20:58.739Z,100898.56
2022-09-04T07:24:14.006Z,100899.16
2022-09-04T07:37:04.708Z,100900.50
2022-09-04T07:41:00.325Z,100906.06
2022-09-04T07:44:29.317Z,100912.31
2022-09-04T07:47:44.554Z,100907.41
2022-09-04T07:51:04.975Z,100917.81
2022-09-04T07:54:48.660Z,100916.69
2022-09-04T07:58:07.949Z,100919.66
2022-09-04T08:01:23.351Z,100934.34
2022-09-04T08:05:00.234Z,100942.91
2022-09-04T08:08:37.272Z,100944.56
2022-09-04T08:11:45.562Z,100945.69
2022-09-04T08:15:04.744Z,100950.91
2022-09-04T08:18:27.677Z,100950.47
2022-09-04T08:21:30.543Z,100950.97
2022-09-04T08:25:02.739Z,100963.22
2022-09-04T08:28:26.980Z,100953.06
2022-09-04T08:31:47.330Z,100960.97
2022-09-04T08:35:07.339Z,100961.91
2022-09-04T08:38:26.877Z,100961.28
2022-09-04T08:41:41.820Z,100961.81
2022-09-04T08:45:20.292Z,100958.72
2022-09-04T08:48:59.601Z,100964.94
2022-09-04T08:52:35.185Z,100975.41
2022-09-04T08:56:06.507Z,100971.97
2022-09-04T08:59:36.894Z,100968.53
2022-09-04T09:02:59.932Z,100970.84
2022-09-04T09:06:27.758Z,100960.06
2022-09-04T09:10:01.230Z,100976.63
2022-09-04T09:13:28.597Z,100973.47
2022-09-04T09:17:13.658Z,100979.53
2022-09-04T09:20:19.379Z,100979.78
2022-09-04T09:23:21.669Z,100978.81
2022-09-04T09:26:27.690Z,100973.94
2022-09-04T09:29:41.836Z,100973.31
2022-09-04T09:32:46.514Z,100964.81
2022-09-04T09:36:20.213Z,100969.78
2022-09-04T09:40:00.804Z,100963.66
2022-09-04T09:43:24.494Z,100955.63
2022-09-04T09:47:08.443Z,100964.66
2022-09-04T09:50:41.358Z,100953.56
2022-09-04T09:53:58.238Z,100947.53
2022-09-04T09:57:29.693Z,100956.06
2022-09-04T10:01:09.479Z,100954.78
2022-09-04T10:04:49.720Z,100942.16
2022-09-04T10:07:54.339Z,100951.50
2022-09-04T10:10:57.201Z,100947.88
2022-09-04T10:14:09.431Z,100945.25
2022-09-04T10:17:32.922Z,100946.72
2022-09-04T10:21:10.550Z,100948.25
2022-09-04T10:24:23.461Z,100955.41
2022-09-04T10:27:48.605Z,100949.81
2022-09-04T10:31:13.240Z,100956.38
2022-09-04T10:34:37.001Z,100954.50
2022-09-04T10:38:06.443Z,100957.91
2022-09-04T10:41:26.757Z,100954.56
2022-09-04T10:44:44.241Z,100955.00
2022-09-04T10:48:12.594Z,100945.34
2022-09-04T10:51:35.689Z,100953.66
2022-09-04T10:54:56.264Z,100947.66
2022-09-04T10:58:17.150Z,100949.75
2022-09-04T11:01:31.262Z,100942.84
2022-09-04T11:04:52.604Z,100947.94
2022-09-04T11:08:25.205Z,100942.31
2022-09-04T11:11:52.862Z,100948.06
2022-09-04T11:15:13.494Z,100941.28
2022-09-04T11:18:38.086Z,100928.84
2022-09-04T11:21:51.905Z,100933.09
2022-09-04T11:25:04.351Z,100933.84
2022-09-04T11:28:40.222Z,100931.13
2022-09-04T11:32:15.687Z,100940.50
2022-09-04T11:35:34.006Z,100942.63
2022-09-04T11:38:58.689Z,100937.66
2022-09-04T11:42:28.310Z,100938.38
2022-09-04T11:46:00.965Z,100937.91
2022-09-04T11:49:13.404Z,100926.94
2022-09-04T11:52:22.657Z,100926.56
2022-09-04T11:55:36.508Z,100925.59
2022-09-04T11:59:10.908Z,100926.06
2022-09-04T12:02:29.577Z,100917.25
2022-09-04T12:05:56.171Z,100912.22
2022-09-04T12:09:05.036Z,100919.69
2022-09-04T12:12:32.533Z,100921.38
2022-09-04T12:16:19.309Z,100919.88
2022-09-04T12:19:40.008Z,100913.31
2022-09-04T12:23:06.463Z,100921.28
2022-09-04T12:26:26.356Z,100919.94
2022-09-04T12:29:50.472Z,100913.22
2022-09-04T12:33:03.296Z,100909.59
2022-09-04T12:36:34.725Z,100906.88
2022-09-04T12:39:51.720Z,100916.22
2022-09-04T12:43:20.497Z,100916.53
2022-09-04T12:46:39.105Z,100908.13
2022-09-04T12:50:11.402Z,100915.97
2022-09-04T12:53:37.315Z,100917.59
2022-09-04T12:56:49.334Z,100909.16
2022-09-04T13:00:12.287Z,100919.09
2022-09-04T13:03:23.411Z,100918.25
2022-09-04T13:06:45.202Z,100918.88
2022-09-04T13:10:23.106Z,100920.19
2022-09-04T13:13:48.450Z,100918.97
2022-09-04T13:16:57.637Z,100930.25
2022-09-04T13:20:14.340Z,100927.72
2022-09-04T13:23:37.988Z,100933.28
2022-09-04T13:27:06.870Z,100940.34
2022-09-04T13:30:10.031Z,100932.66
2022-09-04T13:33:49.662Z,100934.16
2022-09-04T13:37:10.955Z,100934.59
2022-09-04T13:40:54.912Z,100935.66
2022-09-04T13:44:17.816Z,100934.56
2022-09-04T13:47:32.070Z,100935.19
2022-09-04T13:50:42.520Z,100936.25
2022-09-04T13:54:10.871Z,100928.69
2022-09-04T13:57:18.128Z,100932.25
2022-09-04T14:00:21.473Z,100925.72
2022-09-04T14:03:33.686Z,100931.25
2022-09-04T14:06:36.980Z,100939.69
2022-09-04T14:09:45.006Z,100934.19
2022-09-04T14:13:04.874Z,100934.00
2022-09-04T14:16:10.900Z,100927.84
2022-09-04T14:19:32.405Z,100936.66
2022-09-04T14:22:46.295Z,100927.78
2022-09-04T14:26:06.270Z,100935.59
2022-09-04T14:29:10.828Z,100936.06
2022-09-04T14:32:32.182Z,100934.41
2022-09-04T14:36:14.973Z,100931.09
2022-09-04T14:39:22.841Z,100925.50
2022-09-04T14:42:58.353Z,100931.91
2022-09-04T14:46:19.208Z,100932.84
2022-09-04T14:49:31.990Z,100926.66
2022-09-04T14:52:41.064Z,100933.16
2022-09-04T14:56:04.808Z,100934.41
2022-09-04T14:59:12.876Z,100936.75
2022-09-04T15:02:28.254Z,100939.19
2022-09-04T15:05:51.525Z,100938.44
2022-09-04T15:08:54.154Z,100931.66
2022-09-04T15:12:24.314Z,100920.22
2022-09-04T15:15:35.027Z,100929.94
2022-09-04T15:18:40.678Z,100929.53
2022-09-04T15:21:55.136Z,100924.44
2022-09-04T15:24:57.146Z,100930.38
2022-09-04T15:28:10.695Z,100924.94
2022-09-04T15:31:18.419Z,100930.00
2022-09-04T15:34:25.838Z,100933.59
2022-09-04T15:37:28.692Z,100931.69
2022-09-04T15:40:35.128Z,100930.25
2022-09-04T15:43:48.322Z,100933.59
2022-09-04T15:47:15.980Z,100928.53
2022-09-04T15:50:21.962Z,100925.78
2022-09-04T15:53:27.555Z,100923.63
2022-09-04T15:56:38.774Z,100932.06
2022-09-04T15:59:46.439Z,100941.56
2022-09-04T16:03:03.411Z,100935.41
2022-09-04T16:06:19.323Z,100928.81
2022-09-04T16:09:30.841Z,100931.06
2022-09-04T16:12:38.795Z,100925.59
2022-09-04T16:15:45.993Z,100924.91
2022-09-04T16:19:14.298Z,100925.88
2022-09-04T16:22:47.778Z,100924.13
2022-09-04T16:25:50.854Z,100919.16
2022-09-04T16:29:02.662Z,100924.59
2022-09-04T16:32:12.251Z,100925.63
2022-09-04T16:35:21.508Z,100920.13
2022-09-04T16:38:47.446Z,100927.13
2022-09-04T16:41:51.866Z,100918.84
2022-09-04T16:45:03.177Z,100923.28
2022-09-04T16:48:33.882Z,100923.84
2022-09-04T16:51:48.565Z,100940.94
2022-09-04T16:55:10.537Z,100932.16
2022-09-04T16:58:12.094Z,100937.47
2022-09-04T17:01:17.887Z,100938.41
2022-09-04T17:04:39.745Z,100937.69
2022-09-04T17:07:49.326Z,100937.81
2022-09-04T17:11:14.742Z,100938.38
2022-09-04T17:14:35.502Z,100943.97
2022-09-04T17:17:41.567Z,100950.41
2022-09-04T17:24:10.747Z,100954.09
2022-09-04T17:28:57.996Z,100952.47
2022-09-04T17:29:16.212Z,100955.47
2022-09-04T17:31:45.526Z,100952.34
2022-09-04T17:40:34.778Z,100959.44
2022-09-04T17:40:37.325Z,100965.94
2022-09-04T17:42:14.878Z,100958.66
2022-09-04T17:45:33.868Z,100963.91
2022-09-04T17:48:46.165Z,100967.44
2022-09-04T17:51:57.466Z,100968.66
2022-09-04T17:55:12.951Z,100970.25
2022-09-04T17:58:26.886Z,100971.03
2022-09-04T18:02:17.569Z,100975.56
2022-09-04T18:05:28.319Z,100974.81
2022-09-04T18:08:43.574Z,100972.66
2022-09-04T18:12:00.916Z,100979.72
2022-09-04T18:15:33.696Z,100983.84
2022-09-04T18:19:09.648Z,100984.38
2022-09-04T18:22:33.707Z,100994.66
2022-09-04T18:25:54.141Z,100996.53
2022-09-04T18:30:11.914Z,100995.88
2022-09-04T18:37:16.530Z,101005.09
2022-09-04T18:37:20.116Z,101005.28
2022-09-04T18:40:06.897Z,100998.97
2022-09-04T18:50:22.959Z,101009.88
2022-09-04T18:50:37.752Z,101012.75
2022-09-04T18:50:44.415Z,101008.31
2022-09-04T18:53:33.028Z,101020.41
2022-09-04T18:56:43.232Z,101017.00
2022-09-04T18:59:46.624Z,101025.31
2022-09-04T19:03:18.233Z,101027.34
2022-09-04T19:07:06.750Z,101030.88
2022-09-04T19:10:18.606Z,101031.03
2022-09-04T19:13:28.748Z,101034.41
2022-09-04T19:17:08.076Z,101033.88
2022-09-04T19:20:15.705Z,101035.88
2022-09-04T19:23:28.566Z,101036.19
2022-09-04T19:26:43.413Z,101036.16
2022-09-04T19:30:19.965Z,101041.59
2022-09-04T19:33:39.413Z,101036.75
2022-09-04T19:41:39.586Z,101037.56
2022-09-04T19:45:58.926Z,101041.28
2022-09-04T19:46:11.287Z,101045.13
2022-09-04T19:50:44.148Z,101041.13
2022-09-04T19:53:32.276Z,101040.03
2022-09-04T19:57:14.768Z,101048.31
2022-09-04T20:00:38.246Z,101047.75
2022-09-04T20:03:48.584Z,101053.63
2022-09-04T20:07:14.158Z,101047.66
2022-09-04T20:11:07.026Z,101054.41
2022-09-04T21:37:30.496Z,101098.44
2022-09-04T21:41:04.460Z,101099.59
